Terminal Aerodrome Forecast
Issued by NWS

Home | Current Version | Previous Version | Text Only | Print | Product List | Glossary On
Versions: 1 2 3 4 5 6 7 8 9 10 11 12 13
000
FTUS42 TJSJ 281900 AAA
TAFJPS
TAF AMD
TJPS 281923Z 2819/2918 13018KT P6SM VCTS SCT030CB SCT050
      TEMPO 2819/2821 5SM TSRA SCT020CB BKN050
     FM282330 05005KT P6SM FEW030
     FM291500 13012KT P6SM FEW030 SCT060
      AMD NOT SKED TIL 290300=

USA.gov is the U.S. government's official web portal to all federal, state and local government web resources and services.